Time;durP1;ratioP1;P1;durP2;ratioP2;P2;SDS_P1;SDS_P2;PMS_P1;PMS_P2;Temp;Humidity;BMP_temperature;BMP_pressure;BME280_temperature;BME280_humidity;BME280_pressure;Samples;Min_cycle;Max_cycle;Signal;HPM_P1;HPM_P2
2022/09/02 00:02:30;;;;;;;1.33;1.00;;;;;;;12.85;90.17;101102.84;6229129;28;20045;-87
2022/09/02 00:05:32;;;;;;;1.98;0.90;;;;;;;12.82;90.95;101102.25;6212315;28;20046;-87
2022/09/02 00:08:34;;;;;;;2.60;0.85;;;;;;;12.79;91.69;101100.72;6209595;28;20440;-87
2022/09/02 00:11:37;;;;;;;3.10;0.80;;;;;;;12.78;90.86;101095.66;6219103;28;20363;-87
2022/09/02 00:14:39;;;;;;;1.73;0.85;;;;;;;12.74;92.37;101102.84;6213369;28;20045;-87
2022/09/02 00:17:41;;;;;;;2.92;0.90;;;;;;;12.72;92.56;101096.97;6213786;28;20424;-87
2022/09/02 00:20:46;;;;;;;3.45;1.13;;;;;;;12.69;93.38;101098.03;6199210;28;20053;-87
2022/09/02 00:23:48;;;;;;;0.93;0.80;;;;;;;12.68;92.66;101098.16;6220652;28;20411;-87
2022/09/02 00:26:50;;;;;;;1.58;0.73;;;;;;;12.67;92.93;101102.53;6195808;28;20400;-87
2022/09/02 00:29:57;;;;;;;1.73;0.82;;;;;;;12.65;92.96;101094.03;6200832;28;20056;-87
2022/09/02 00:32:59;;;;;;;2.03;0.75;;;;;;;12.62;92.76;101093.44;6206357;28;21271;-87
2022/09/02 00:36:02;;;;;;;1.80;1.02;;;;;;;12.62;93.53;101093.44;6212032;28;20411;-87
2022/09/02 00:39:07;;;;;;;2.25;0.95;;;;;;;12.58;94.37;101092.84;6206600;28;20129;-87
2022/09/02 00:42:08;;;;;;;0.70;0.70;;;;;;;12.54;93.89;101088.03;6220663;28;20045;-87
2022/09/02 00:45:11;;;;;;;1.35;0.80;;;;;;;12.50;93.67;101079.66;6215740;28;20030;-87
2022/09/02 00:48:13;;;;;;;1.27;0.85;;;;;;;12.45;94.83;101090.41;6202109;28;20562;-87
2022/09/02 00:51:15;;;;;;;1.25;0.98;;;;;;;12.40;95.59;101079.53;6217961;28;20103;-87
2022/09/02 00:54:19;;;;;;;1.40;0.80;;;;;;;12.40;95.22;101086.50;6200982;28;20052;-87
2022/09/02 00:57:25;;;;;;;1.08;0.90;;;;;;;12.38;95.14;101086.63;6210955;28;20056;-87
2022/09/02 01:00:32;;;;;;;1.75;0.80;;;;;;;12.38;96.53;101083.19;6227438;28;20052;-87
2022/09/02 01:03:35;;;;;;;1.25;0.85;;;;;;;12.36;95.87;101082.50;6209776;28;20112;-87
2022/09/02 01:06:38;;;;;;;1.33;0.90;;;;;;;12.34;97.04;101081.78;6195946;28;20038;-87
2022/09/02 01:09:42;;;;;;;0.80;0.80;;;;;;;12.29;96.70;101079.53;6213175;28;20126;-87
2022/09/02 01:12:43;;;;;;;3.63;1.00;;;;;;;12.26;97.16;101072.81;6208604;28;20081;-87
2022/09/02 01:15:50;;;;;;;1.95;1.13;;;;;;;12.22;97.61;101071.41;6206291;28;20185;-87
2022/09/02 01:18:55;;;;;;;1.05;0.98;;;;;;;12.20;97.10;101078.50;6219122;28;20053;-87
2022/09/02 01:21:57;;;;;;;1.88;0.90;;;;;;;12.20;97.97;101075.06;6210653;28;20046;-87
2022/09/02 01:25:06;;;;;;;1.55;0.80;;;;;;;12.17;98.76;101064.91;6205933;28;20049;-87
2022/09/02 01:28:12;;;;;;;0.85;0.80;;;;;;;12.12;98.73;101070.44;6245465;28;20053;-87
2022/09/02 01:31:13;;;;;;;2.72;0.90;;;;;;;12.10;99.41;101061.13;6216675;28;20045;-87
2022/09/02 01:34:16;;;;;;;1.20;1.10;;;;;;;12.07;99.48;101060.44;6221272;28;20052;-87
2022/09/02 01:37:18;;;;;;;2.35;0.90;;;;;;;12.08;100.00;101058.66;6206598;28;20196;-87
2022/09/02 01:40:20;;;;;;;1.98;1.20;;;;;;;12.15;100.00;101067.63;6226105;28;20037;-87
2022/09/02 01:43:25;;;;;;;4.80;2.20;;;;;;;12.15;99.95;101062.44;6197274;28;20103;-87
2022/09/02 01:46:28;;;;;;;1.55;0.80;;;;;;;12.15;100.00;101059.84;6226264;28;20058;-87
2022/09/02 01:49:30;;;;;;;2.28;0.95;;;;;;;12.13;100.00;101051.34;6207778;28;20149;-87
2022/09/02 01:52:36;;;;;;;1.05;0.90;;;;;;;12.12;100.00;101049.69;6211379;28;20049;-87
2022/09/02 01:55:38;;;;;;;1.08;0.80;;;;;;;12.08;100.00;101050.88;6213541;28;20099;-87
2022/09/02 01:58:40;;;;;;;2.08;0.90;;;;;;;12.04;100.00;101041.69;6197796;28;20038;-87
2022/09/02 02:01:43;;;;;;;1.38;1.00;;;;;;;12.02;100.00;101040.97;6201873;28;20323;-87
2022/09/02 02:04:46;;;;;;;1.95;0.88;;;;;;;11.98;100.00;101040.38;6212036;28;20053;-87
2022/09/02 02:07:50;;;;;;;1.30;0.98;;;;;;;11.95;100.00;101032.00;6201992;28;20072;-87
2022/09/02 02:10:52;;;;;;;2.10;0.90;;;;;;;11.93;100.00;101031.31;6210072;28;20050;-87
2022/09/02 02:13:54;;;;;;;1.45;0.80;;;;;;;11.90;100.00;101034.13;6195217;28;20073;-87
2022/09/02 02:16:56;;;;;;;3.38;0.90;;;;;;;11.89;100.00;101029.88;6199733;28;20156;-87
2022/09/02 02:19:58;;;;;;;2.38;1.05;;;;;;;11.87;100.00;101026.56;6196449;28;20033;-87
2022/09/02 02:23:00;;;;;;;1.17;0.90;;;;;;;11.84;100.00;101030.19;6202158;28;20046;-87
2022/09/02 02:26:02;;;;;;;1.25;0.93;;;;;;;11.79;100.00;101025.34;6195223;28;20050;-87
2022/09/02 02:29:05;;;;;;;1.40;0.77;;;;;;;11.75;100.00;101031.75;6199853;28;20053;-87
2022/09/02 02:32:07;;;;;;;1.67;0.98;;;;;;;11.73;100.00;101038.81;6211428;28;20060;-87
2022/09/02 02:35:10;;;;;;;3.58;1.10;;;;;;;11.68;100.00;101035.72;6194882;28;20038;-87
2022/09/02 02:38:13;;;;;;;1.30;0.93;;;;;;;11.65;100.00;101030.75;6208350;28;20037;-87
2022/09/02 02:41:16;;;;;;;2.30;1.00;;;;;;;11.63;100.00;101028.28;6190341;28;20038;-87
2022/09/02 02:44:19;;;;;;;1.10;0.90;;;;;;;11.59;100.00;101021.69;6207508;28;20046;-87
2022/09/02 02:47:21;;;;;;;2.33;1.20;;;;;;;11.58;100.00;101024.41;6202583;28;20038;-87
2022/09/02 02:50:24;;;;;;;1.50;0.90;;;;;;;11.54;100.00;101025.56;6202429;28;20049;-87
2022/09/02 02:53:28;;;;;;;1.00;0.82;;;;;;;11.50;100.00;101017.22;6206274;28;20446;-87
2022/09/02 02:56:31;;;;;;;3.53;1.20;;;;;;;11.47;100.00;101016.59;6215173;28;20413;-87
2022/09/02 02:59:35;;;;;;;2.00;1.00;;;;;;;11.43;100.00;101018.59;6194998;28;20579;-87
2022/09/02 03:02:38;;;;;;;3.40;1.10;;;;;;;11.37;100.00;101019.88;6206861;28;20179;-87
2022/09/02 03:05:40;;;;;;;1.95;1.08;;;;;;;11.33;100.00;101017.59;6206912;28;20041;-87
2022/09/02 03:08:43;;;;;;;3.60;1.92;;;;;;;11.29;100.00;101014.44;6215915;28;20061;-87
2022/09/02 03:11:47;;;;;;;1.27;1.17;;;;;;;11.26;100.00;101014.66;6202158;28;20073;-87
2022/09/02 03:14:49;;;;;;;3.08;1.30;;;;;;;11.22;100.00;101008.03;6215591;28;20054;-87
2022/09/02 03:17:54;;;;;;;1.08;0.98;;;;;;;11.19;100.00;101006.50;6212830;28;20046;-87
2022/09/02 03:20:57;;;;;;;2.65;1.20;;;;;;;11.15;100.00;101012.84;6211596;28;20041;-87
2022/09/02 03:23:59;;;;;;;2.33;1.15;;;;;;;11.14;100.00;101006.03;6196561;28;20576;-87
2022/09/02 03:27:02;;;;;;;2.40;1.40;;;;;;;11.13;100.00;101011.31;6202702;28;20033;-87
2022/09/02 03:30:14;;;;;;;2.00;1.15;;;;;;;11.10;100.00;101007.19;6213683;28;20659;-87
2022/09/02 03:33:16;;;;;;;3.17;1.30;;;;;;;11.08;100.00;101003.91;6208575;28;20126;-87
2022/09/02 03:36:30;;;;;;;2.55;1.27;;;;;;;11.07;100.00;101001.41;6206004;28;20538;-87
2022/09/02 03:39:34;;;;;;;1.27;0.90;;;;;;;11.06;100.00;101007.53;6204945;28;20061;-87
2022/09/02 03:42:37;;;;;;;1.33;1.02;;;;;;;11.06;100.00;101007.53;6210706;28;20046;-87
2022/09/02 03:45:42;;;;;;;2.53;1.30;;;;;;;11.04;100.00;101001.63;6212867;28;20065;-87
2022/09/02 03:48:50;;;;;;;1.70;1.17;;;;;;;11.02;100.00;100991.38;6206646;28;20041;-87
2022/09/02 03:51:53;;;;;;;2.97;1.25;;;;;;;11.01;100.00;100992.34;6196136;28;20081;-87
2022/09/02 03:54:55;;;;;;;1.95;1.20;;;;;;;11.00;100.00;100998.44;6215045;28;20148;-87
2022/09/02 03:57:57;;;;;;;1.25;1.10;;;;;;;10.99;100.00;100992.44;6202484;28;20041;-87
2022/09/02 04:01:00;;;;;;;1.15;1.00;;;;;;;10.96;100.00;100992.66;6213823;28;20045;-87
2022/09/02 04:04:04;;;;;;;2.05;1.20;;;;;;;10.96;100.00;101002.19;6213757;28;20041;-87
2022/09/02 04:07:08;;;;;;;1.52;1.10;;;;;;;10.92;100.00;100996.41;6202141;28;20141;-87
2022/09/02 04:10:11;;;;;;;3.05;1.20;;;;;;;10.92;100.00;100996.41;6212180;28;20035;-87
2022/09/02 04:13:13;;;;;;;1.85;1.15;;;;;;;10.93;100.00;101005.84;6217250;28;20112;-87
2022/09/02 04:16:18;;;;;;;2.55;1.27;;;;;;;10.93;100.00;101007.59;6207513;28;20038;-87
2022/09/02 04:19:20;;;;;;;1.90;1.50;;;;;;;10.93;100.00;101002.41;6197828;28;20430;-87
2022/09/02 04:22:23;;;;;;;3.22;1.25;;;;;;;10.90;100.00;101005.22;6207208;28;20704;-87
2022/09/02 04:25:24;;;;;;;6.13;1.40;;;;;;;10.87;100.00;100995.09;6224716;28;20034;-87
2022/09/02 04:28:30;;;;;;;1.90;1.35;;;;;;;10.88;100.00;101005.34;6215540;28;20645;-87
2022/09/02 04:31:32;;;;;;;2.08;1.02;;;;;;;10.85;100.00;101004.72;6190089;28;20058;-87
2022/09/02 04:34:34;;;;;;;1.13;1.02;;;;;;;10.85;100.00;100999.56;6217603;28;20676;-87
2022/09/02 04:37:37;;;;;;;2.33;1.30;;;;;;;10.86;100.00;101004.63;6204446;28;20050;-88
2022/09/02 04:40:41;;;;;;;2.63;1.10;;;;;;;10.86;100.00;101002.03;6212543;28;20053;-87
2022/09/02 04:43:44;;;;;;;1.50;1.30;;;;;;;10.87;100.00;101000.28;6213056;28;20050;-87
2022/09/02 04:46:47;;;;;;;2.00;1.25;;;;;;;10.85;100.00;101000.38;6197943;28;20048;-87
2022/09/02 04:49:53;;;;;;;1.40;1.23;;;;;;;10.89;100.00;100995.81;6207351;28;20045;-88
2022/09/02 04:52:56;;;;;;;2.03;1.33;;;;;;;10.92;100.00;100996.41;6202424;28;20042;-87
2022/09/02 04:55:58;;;;;;;2.00;1.25;;;;;;;10.94;100.00;101004.88;6219648;28;20037;-88
2022/09/02 04:59:00;;;;;;;1.92;1.38;;;;;;;10.97;100.00;101004.66;6203935;28;20050;-87
2022/09/02 05:02:04;;;;;;;1.30;1.20;;;;;;;11.00;100.00;100998.44;6219587;28;20408;-88
2022/09/02 05:05:07;;;;;;;1.45;1.20;;;;;;;11.02;100.00;101013.88;6204592;28;20041;-88
2022/09/02 05:08:13;;;;;;;2.40;1.38;;;;;;;11.01;100.00;101002.69;6200700;28;20034;-87
2022/09/02 05:11:22;;;;;;;1.60;1.42;;;;;;;11.04;100.00;100999.88;6218000;28;20046;-87
2022/09/02 05:14:24;;;;;;;2.15;1.40;;;;;;;11.10;100.00;100999.41;6199243;28;20038;-87
2022/09/02 05:17:31;;;;;;;2.83;1.42;;;;;;;11.11;100.00;100998.47;6200682;28;20441;-87
2022/09/02 05:20:38;;;;;;;2.30;1.60;;;;;;;11.15;100.00;100993.88;6213127;28;20515;-87
2022/09/02 05:23:40;;;;;;;1.88;1.50;;;;;;;11.19;100.00;100992.72;6212718;28;20053;-88
2022/09/02 05:35:02;;;;;;;3.92;1.58;;;;;;;11.38;100.00;100987.00;6205015;28;20038;-88
2022/09/02 05:38:07;;;;;;;2.38;1.38;;;;;;;11.43;100.00;100982.31;6199105;28;20153;-88
2022/09/02 05:41:18;;;;;;;2.30;1.38;;;;;;;11.44;100.00;100991.72;6203591;28;20139;-87
2022/09/02 05:44:21;;;;;;;2.13;1.48;;;;;;;11.46;100.00;100983.84;6189445;28;20034;-88
2022/09/02 05:47:24;;;;;;;5.55;1.83;;;;;;;11.51;100.00;100989.50;6217392;28;20586;-88
2022/09/02 05:50:27;;;;;;;4.07;1.30;;;;;;;11.53;100.00;100982.44;6219015;28;20227;-88
2022/09/02 05:53:32;;;;;;;2.92;1.40;;;;;;;11.57;100.00;100982.06;6188730;28;20413;-88
2022/09/02 05:56:41;;;;;;;3.38;1.55;;;;;;;11.63;100.00;100981.63;6203781;28;20042;-88
2022/09/02 05:59:47;;;;;;;;;;;;;;;11.68;100.00;100978.69;6215587;28;20049;-88
2022/09/02 06:02:54;;;;;;;1.48;1.38;;;;;;;11.71;100.00;100978.44;6204277;28;19964;-88
2022/09/02 06:06:04;;;;;;;2.85;1.60;;;;;;;11.76;100.00;100981.50;6201298;28;20058;-88
2022/09/02 06:09:12;;;;;;;1.48;1.38;;;;;;;11.80;100.00;100982.94;6208516;28;20049;-88
2022/09/02 06:12:18;;;;;;;4.00;1.50;;;;;;;11.84;100.00;100976.53;6201094;28;20141;-88
2022/09/02 06:15:21;;;;;;;2.05;1.48;;;;;;;11.90;100.00;100990.00;6214587;28;20515;-88
2022/09/02 06:18:23;;;;;;;1.92;1.45;;;;;;;11.96;100.00;100982.59;6204795;28;20092;-88
2022/09/02 06:21:29;;;;;;;4.70;1.60;;;;;;;12.00;100.00;100986.63;6195236;28;20042;-88
2022/09/02 06:24:32;;;;;;;3.33;1.55;;;;;;;12.05;100.00;100994.88;6189979;28;20052;-88
2022/09/02 06:27:40;;;;;;;3.15;1.52;;;;;;;12.09;100.00;100990.25;6197701;28;20077;-87
2022/09/02 06:30:44;;;;;;;2.03;1.67;;;;;;;12.15;100.00;100989.78;6205873;28;20511;-88
2022/09/02 06:33:47;;;;;;;3.47;1.50;;;;;;;12.21;100.00;100993.66;6191933;28;20537;-88
2022/09/02 06:36:51;;;;;;;3.08;1.70;;;;;;;12.26;100.00;100989.75;6205645;28;20277;-88
2022/09/02 06:39:54;;;;;;;4.82;1.70;;;;;;;12.32;100.00;100988.44;6195790;28;20136;-87
2022/09/02 06:42:59;;;;;;;4.05;1.70;;;;;;;12.38;100.00;100987.16;6199188;28;20570;-87
2022/09/02 06:46:07;;;;;;;4.32;2.33;;;;;;;12.44;100.00;100991.84;6191168;28;20822;-87
2022/09/02 06:49:11;;;;;;;2.95;1.80;;;;;;;12.54;100.00;100990.16;6190880;28;20484;-87
2022/09/02 06:52:14;;;;;;;3.35;1.60;;;;;;;12.60;100.00;100992.28;6199608;28;20088;-87
2022/09/02 06:55:17;;;;;;;2.42;1.83;;;;;;;12.66;100.00;100991.78;6194504;28;20192;-87
2022/09/02 06:58:20;;;;;;;1.80;1.40;;;;;;;12.70;100.00;100982.81;6205529;28;20042;-88
2022/09/02 07:01:25;;;;;;;2.15;1.60;;;;;;;12.78;100.00;100983.97;6204325;28;20070;-87
2022/09/02 07:07:54;;;;;;;3.00;1.45;;;;;;;12.96;100.00;100984.22;6217562;28;20050;-88
2022/09/02 07:10:56;;;;;;;2.53;2.00;;;;;;;13.02;100.00;100984.56;6220253;28;20058;-87
2022/09/02 07:14:00;;;;;;;1.60;1.50;;;;;;;13.12;100.00;100982.03;6194214;28;20058;-88
2022/09/02 07:17:03;;;;;;;2.63;1.77;;;;;;;13.26;99.32;100978.28;6206241;28;20544;-87
2022/09/02 07:20:06;;;;;;;2.17;1.80;;;;;;;13.33;99.79;100985.47;6208351;28;20653;-87
2022/09/02 07:23:16;;;;;;;4.93;1.80;;;;;;;13.37;100.00;100996.44;6214824;28;20049;-87
2022/09/02 07:26:18;;;;;;;2.92;2.00;;;;;;;13.42;99.23;100983.06;6195646;28;20390;-87
2022/09/02 07:29:20;;;;;;;3.60;1.70;;;;;;;13.47;99.93;100984.31;6216292;28;20336;-87
2022/09/02 07:32:22;;;;;;;2.63;1.92;;;;;;;13.52;99.40;100979.56;6213053;28;20043;-87
2022/09/02 07:35:24;;;;;;;3.80;2.08;;;;;;;13.55;100.00;100979.28;6181522;28;20062;-87
2022/09/02 07:38:26;;;;;;;2.28;1.75;;;;;;;13.62;100.00;100984.81;6191306;28;20400;-87
2022/09/02 07:41:29;;;;;;;2.78;1.98;;;;;;;13.68;99.61;100986.06;6205127;28;20248;-87
2022/09/02 07:44:31;;;;;;;4.85;2.00;;;;;;;13.79;99.38;100986.00;6214538;28;20046;-87
2022/09/02 07:47:34;;;;;;;3.03;1.70;;;;;;;13.88;97.78;100981.75;6212747;28;20053;-87
2022/09/02 07:50:39;;;;;;;2.55;1.98;;;;;;;13.96;97.18;100989.72;6190104;28;20050;-88
2022/09/02 07:53:45;;;;;;;3.58;2.00;;;;;;;14.12;94.62;100991.84;6213944;28;20652;-88
2022/09/02 07:56:48;;;;;;;1.83;1.60;;;;;;;14.23;93.87;100976.09;6200242;28;20049;-88
2022/09/02 07:59:52;;;;;;;2.38;2.10;;;;;;;14.35;93.42;100980.25;6219604;28;20524;-87
2022/09/02 08:02:54;;;;;;;4.93;2.10;;;;;;;14.41;94.06;100979.72;6211909;28;20501;-88
2022/09/02 08:06:02;;;;;;;5.55;2.10;;;;;;;14.48;93.27;100972.16;6205293;28;20454;-88
2022/09/02 08:09:10;;;;;;;2.47;2.10;;;;;;;14.60;91.85;100976.31;6196265;28;20109;-88
2022/09/02 08:12:11;;;;;;;3.33;2.33;;;;;;;14.72;90.87;100978.81;6199745;28;20077;-88
2022/09/02 08:15:15;;;;;;;3.08;2.00;;;;;;;14.86;89.70;100976.63;6194134;28;20095;-87
2022/09/02 08:18:18;;;;;;;2.85;2.15;;;;;;;14.99;88.63;100978.94;6216548;28;20277;-88
2022/09/02 08:21:24;;;;;;;6.43;2.20;;;;;;;15.10;88.28;100977.13;6209593;28;20034;-88
2022/09/02 08:24:30;;;;;;;4.65;1.90;;;;;;;15.21;87.81;100975.19;6214705;28;20046;-87
2022/09/02 08:27:32;;;;;;;3.65;1.98;;;;;;;15.37;87.27;100974.59;6201895;28;20057;-87
2022/09/02 08:30:34;;;;;;;5.30;2.30;;;;;;;15.53;85.76;100979.25;6194618;28;20143;-88
2022/09/02 08:33:36;;;;;;;4.38;1.98;;;;;;;15.60;85.75;100971.66;6201149;28;20044;-88
2022/09/02 08:36:42;;;;;;;2.92;1.90;;;;;;;15.75;85.49;100975.50;6200929;28;20048;-88
2022/09/02 08:39:56;;;;;;;3.53;1.88;;;;;;;15.96;84.34;100970.03;6202693;28;20484;-87
2022/09/02 08:43:00;;;;;;;1.75;1.40;;;;;;;16.12;83.20;100962.41;6211811;28;20483;-88
2022/09/02 08:46:03;;;;;;;5.35;1.95;;;;;;;16.22;82.35;100959.69;6197480;28;20046;-88
2022/09/02 08:49:34;;;;;;;2.17;1.65;;;;;;;16.33;82.03;100950.84;6193524;28;20447;-88
2022/09/02 08:52:55;;;;;;;4.32;1.92;;;;;;;16.44;81.38;100955.03;6196467;28;20121;-87
2022/09/02 08:56:00;;;;;;;3.80;1.70;;;;;;;16.56;81.25;100951.22;6198395;28;20817;-88
2022/09/02 08:59:03;;;;;;;2.20;1.58;;;;;;;16.81;79.79;100952.28;6198723;28;20405;-88
2022/09/02 09:02:16;;;;;;;2.20;1.58;;;;;;;16.98;78.53;100955.84;6192891;28;20046;-88
2022/09/02 09:05:49;;;;;;;2.47;1.73;;;;;;;17.12;78.28;100944.84;6194571;28;20046;-88
2022/09/02 09:09:12;;;;;;;6.45;3.40;;;;;;;17.23;77.11;100939.31;6192815;28;20034;-88
2022/09/02 09:12:14;;;;;;;3.38;1.30;;;;;;;17.39;76.50;100932.53;6205801;28;20076;-88
2022/09/02 09:15:46;;;;;;;2.15;1.40;;;;;;;17.64;74.90;100936.13;6199029;28;20061;-88
2022/09/02 09:19:13;;;;;;;4.10;1.40;;;;;;;17.76;73.00;100931.41;6201927;28;20042;-89
2022/09/02 09:22:18;;;;;;;4.00;1.75;;;;;;;17.90;72.92;100930.81;6197736;28;20141;-88
2022/09/02 09:25:28;;;;;;;3.10;1.45;;;;;;;18.00;73.36;100918.41;6196783;28;20068;-88
2022/09/02 09:28:30;;;;;;;2.75;1.50;;;;;;;18.15;72.02;100929.09;6198459;28;20034;-88
2022/09/02 09:31:34;;;;;;;2.42;1.20;;;;;;;18.34;71.28;100920.13;6192762;28;20057;-88
2022/09/02 09:34:51;;;;;;;3.85;1.45;;;;;;;18.42;69.48;100914.06;6208724;28;20053;-88
2022/09/02 09:37:54;;;;;;;2.80;1.38;;;;;;;18.44;69.05;100912.91;6212276;28;20156;-88
2022/09/02 09:41:21;;;;;;;5.10;1.38;;;;;;;18.54;67.91;100912.75;6201965;28;20514;-88
2022/09/02 09:44:39;;;;;;;7.70;1.50;;;;;;;18.71;66.39;100911.78;6195003;28;20783;-88
2022/09/02 09:47:41;;;;;;;2.70;1.10;;;;;;;18.90;64.61;100907.19;6206208;28;20038;-88
2022/09/02 09:50:45;;;;;;;1.52;1.13;;;;;;;18.99;64.18;100898.31;6201067;28;20050;-88
2022/09/02 09:53:47;;;;;;;3.00;1.10;;;;;;;19.12;63.13;100905.66;6200312;28;20848;-88
2022/09/02 09:56:49;;;;;;;4.07;1.13;;;;;;;19.19;63.29;100898.75;6192648;28;20044;-88
2022/09/02 09:59:55;;;;;;;2.10;1.10;;;;;;;19.23;62.70;100892.19;6214189;28;20043;-88
2022/09/02 10:03:04;;;;;;;4.07;1.10;;;;;;;19.35;62.25;100890.84;6189167;28;20089;-88
2022/09/02 10:06:39;;;;;;;4.78;1.33;;;;;;;19.59;60.34;100892.53;6200522;28;20065;-88
2022/09/02 10:09:42;;;;;;;4.20;1.20;;;;;;;19.75;59.73;100882.97;6202262;28;20041;-88
2022/09/02 10:12:47;;;;;;;3.50;1.30;;;;;;;19.96;59.70;100880.56;6198876;28;20050;-89
2022/09/02 10:16:04;;;;;;;4.20;1.17;;;;;;;20.18;56.63;100878.94;6202652;28;20046;-89
2022/09/02 10:19:33;;;;;;;4.45;1.33;;;;;;;20.30;55.24;100875.91;6202714;28;20096;-89
2022/09/02 10:23:04;;;;;;;1.95;1.20;;;;;;;20.39;54.35;100867.75;6195884;28;20046;-88
2022/09/02 10:26:13;;;;;;;;;;;;;;;20.41;53.81;100860.50;6205268;28;20045;-89
2022/09/02 10:29:53;;;;;;;2.20;1.20;;;;;;;20.55;52.20;100866.03;6198631;28;19933;-88
2022/09/02 10:33:18;;;;;;;4.93;1.20;;;;;;;20.68;51.57;100858.34;6213892;28;20071;-88
2022/09/02 10:36:19;;;;;;;2.88;1.00;;;;;;;20.79;51.49;100851.81;6200344;28;20136;-89
2022/09/02 10:40:03;;;;;;;1.85;0.90;;;;;;;20.90;50.96;100853.19;6201129;28;20477;-88
2022/09/02 10:43:08;;;;;;;1.40;0.88;;;;;;;21.05;49.77;100848.75;6194917;28;20177;-89
2022/09/02 10:46:17;;;;;;;1.58;0.90;;;;;;;21.21;49.90;100855.63;6217267;28;20048;-89
2022/09/02 10:49:45;;;;;;;1.40;1.08;;;;;;;21.32;49.56;100849.91;6203601;28;20587;-89
2022/09/02 10:53:22;;;;;;;3.20;1.00;;;;;;;21.41;48.57;100840.09;6207873;28;20057;-89
2022/09/02 10:57:03;;;;;;;1.80;1.08;;;;;;;21.57;48.69;100839.09;6218877;28;20424;-89
2022/09/02 11:00:20;;;;;;;2.90;0.82;;;;;;;21.65;48.34;100833.69;6195999;28;20073;-90
2022/09/02 11:03:50;;;;;;;5.53;1.00;;;;;;;21.80;48.96;100838.91;6210517;28;20502;-90
2022/09/02 11:06:56;;;;;;;1.92;1.00;;;;;;;22.00;48.07;100823.28;6193256;28;20042;-90
2022/09/02 11:10:14;;;;;;;1.65;0.88;;;;;;;22.15;47.92;100818.75;6203950;28;20133;-90
2022/09/02 11:13:51;;;;;;;2.10;0.95;;;;;;;22.26;48.10;100825.34;6218103;28;20046;-90
2022/09/02 11:17:07;;;;;;;3.03;1.00;;;;;;;22.36;47.23;100812.69;6206541;28;20056;-90
2022/09/02 11:20:51;;;;;;;2.90;1.20;;;;;;;22.47;46.99;100814.78;6202311;28;20192;-91
2022/09/02 11:24:14;;;;;;;8.43;1.38;;;;;;;22.57;46.16;100803.88;6129387;29;20428;-90
2022/09/02 11:27:40;;;;;;;1.70;1.02;;;;;;;22.71;46.04;100804.78;6114667;29;20098;-89
2022/09/02 11:30:55;;;;;;;1.55;0.90;;;;;;;22.78;45.24;100811.75;6130462;29;20042;-90
2022/09/02 11:34:18;;;;;;;1.88;1.00;;;;;;;22.90;45.17;100808.53;6118787;29;20202;-89
2022/09/02 11:37:50;;;;;;;1.00;0.90;;;;;;;23.05;44.80;100805.78;6133893;29;20055;-88
2022/09/02 11:41:06;;;;;;;3.15;0.90;;;;;;;23.26;44.10;100802.22;6044960;29;20196;-93
2022/09/02 11:44:45;;;;;;;2.17;0.90;;;;;;;23.29;43.24;100801.84;6038171;29;20570;-88
2022/09/02 11:48:31;;;;;;;1.42;1.00;;;;;;;23.17;44.22;100791.81;6042637;29;20061;-90
2022/09/02 11:52:00;;;;;;;2.20;1.00;;;;;;;23.36;43.59;100792.09;6022639;29;20061;-90
2022/09/02 11:55:34;;;;;;;3.00;1.20;;;;;;;23.55;41.74;100791.34;6037039;29;20056;-91
2022/09/02 11:58:39;;;;;;;1.58;0.93;;;;;;;23.78;42.48;100796.28;6044615;29;20061;-90
2022/09/02 12:01:54;;;;;;;1.52;0.88;;;;;;;24.11;40.16;100800.78;6117163;29;20549;-92
2022/09/02 12:05:33;;;;;;;1.90;1.00;;;;;;;23.90;41.15;100793.88;6110293;29;20592;-92
2022/09/02 12:08:43;;;;;;;1.83;0.97;;;;;;;23.87;41.09;100794.25;6111993;29;20569;-92
2022/09/02 12:11:48;;;;;;;1.08;0.80;;;;;;;24.09;41.08;100781.66;6111019;29;20162;-91
2022/09/02 12:15:02;;;;;;;0.73;0.70;;;;;;;24.28;41.37;100780.03;6112111;29;20047;-91
2022/09/02 12:18:11;;;;;;;4.63;0.90;;;;;;;24.72;41.53;100778.53;6173604;28;20115;-91
2022/09/02 12:21:14;;;;;;;1.13;0.80;;;;;;;25.21;39.02;100771.03;6199871;28;20042;-92
2022/09/02 12:24:24;;;;;;;1.48;0.90;;;;;;;25.06;39.32;100766.78;6215301;28;20039;-91
2022/09/02 12:27:35;;;;;;;1.23;0.90;;;;;;;24.70;39.48;100770.00;6204724;28;20034;-92
2022/09/02 12:31:06;;;;;;;5.40;1.10;;;;;;;25.18;39.83;100766.16;6209224;28;20231;-90
2022/09/02 12:34:24;;;;;;;5.80;1.10;;;;;;;25.12;39.03;100760.66;6210733;28;20045;-91
2022/09/02 12:37:53;;;;;;;1.85;1.00;;;;;;;25.11;39.39;100761.66;6202599;28;20329;-91
2022/09/02 12:41:20;;;;;;;1.43;1.00;;;;;;;25.13;39.36;100756.16;6212508;28;20042;-91
2022/09/02 12:44:44;;;;;;;2.38;1.08;;;;;;;24.82;39.90;100743.66;6202857;28;20038;-92
2022/09/02 12:48:22;;;;;;;2.35;0.93;;;;;;;24.64;40.84;100746.97;6194284;28;20433;-92
2022/09/02 12:52:01;;;;;;;5.60;0.90;;;;;;;25.16;39.04;100745.13;6210184;28;20049;-91
2022/09/02 12:55:24;;;;;;;1.52;1.23;;;;;;;25.62;39.55;100738.75;6200081;28;20143;-91
2022/09/02 12:58:40;;;;;;;6.63;1.20;;;;;;;26.25;38.82;100735.19;6209021;28;20444;-91
2022/09/02 13:02:20;;;;;;;2.67;1.15;;;;;;;26.05;38.67;100732.72;6208394;28;20503;-91
2022/09/02 13:05:55;;;;;;;3.42;0.88;;;;;;;25.61;38.64;100733.66;6133727;29;20102;-91
2022/09/02 13:09:31;;;;;;;1.38;1.05;;;;;;;25.82;39.27;100722.69;6116039;29;20047;-90
2022/09/02 13:12:59;;;;;;;1.42;1.10;;;;;;;26.54;38.18;100724.91;6086227;29;20191;-90
2022/09/02 13:16:09;;;;;;;2.45;0.98;;;;;;;27.33;37.58;100722.25;6068752;29;20060;-91
2022/09/02 13:19:40;;;;;;;2.42;0.90;;;;;;;27.85;34.96;100728.63;6084329;29;20048;-91
2022/09/02 13:23:19;;;;;;;4.55;1.10;;;;;;;27.63;34.81;100712.38;6081183;29;20115;-90
2022/09/02 13:27:07;;;;;;;2.88;1.00;;;;;;;27.45;35.88;100710.63;6054852;29;20605;-90
2022/09/02 13:30:18;;;;;;;3.10;1.48;;;;;;;27.79;35.76;100715.41;6070235;29;20179;-91
2022/09/02 13:33:20;;;;;;;3.55;1.25;;;;;;;27.92;35.15;100708.03;6085185;29;20067;-91
2022/09/02 13:36:29;;;;;;;1.40;1.30;;;;;;;28.38;34.14;100702.88;6086954;29;20127;-91
2022/09/02 13:39:37;;;;;;;2.78;1.40;;;;;;;28.00;35.25;100704.22;6098918;28;20137;-90
2022/09/02 13:42:47;;;;;;;2.17;1.10;;;;;;;27.48;35.21;100698.72;6176145;28;20086;-90
2022/09/02 13:45:50;;;;;;;3.80;1.77;;;;;;;26.79;36.16;100695.59;6177988;28;20054;-91
2022/09/02 13:48:52;;;;;;;1.98;1.20;;;;;;;26.99;35.85;100697.97;6202238;28;20423;-90
2022/09/02 13:51:55;;;;;;;1.58;0.93;;;;;;;27.85;35.36;100694.03;6202062;28;20531;-90
2022/09/02 13:54:58;;;;;;;3.10;1.10;;;;;;;28.58;34.36;100693.72;6207422;28;20049;-91
2022/09/02 13:58:07;;;;;;;1.02;0.90;;;;;;;28.61;32.91;100691.38;6213139;28;20046;-90
2022/09/02 14:01:28;;;;;;;1.20;1.00;;;;;;;27.67;34.29;100692.25;6212996;28;20050;-90
2022/09/02 14:04:35;;;;;;;3.05;1.20;;;;;;;26.85;35.41;100690.16;6207796;28;20046;-90
2022/09/02 14:07:50;;;;;;;2.75;1.20;;;;;;;26.27;37.43;100687.19;6200308;28;20064;-90
2022/09/02 14:10:53;;;;;;;2.78;1.05;;;;;;;25.97;36.94;100672.78;6214248;28;20038;-90
2022/09/02 14:13:56;;;;;;;1.90;0.93;;;;;;;25.90;37.04;100677.34;6207906;28;20656;-90
2022/09/02 14:17:21;;;;;;;3.20;1.10;;;;;;;26.01;37.36;100678.47;6223660;28;20166;-90
2022/09/02 14:20:24;;;;;;;2.30;0.93;;;;;;;26.25;37.30;100670.69;6201774;28;20045;-90
2022/09/02 14:23:28;;;;;;;1.83;1.10;;;;;;;26.31;37.38;100667.97;6212595;28;20046;-90
2022/09/02 14:26:40;;;;;;;1.45;1.02;;;;;;;26.38;36.42;100674.00;6194994;28;20038;-91
2022/09/02 14:29:44;;;;;;;1.55;1.20;;;;;;;26.30;36.41;100674.28;6213954;28;20053;-90
2022/09/02 14:32:45;;;;;;;5.30;1.88;;;;;;;26.14;37.60;100672.22;6196090;28;20046;-91
2022/09/02 14:36:10;;;;;;;2.38;1.10;;;;;;;26.02;37.62;100668.69;6197581;28;20049;-90
2022/09/02 14:39:18;;;;;;;3.35;1.20;;;;;;;26.16;37.22;100664.84;6227481;28;20422;-91
2022/09/02 14:42:20;;;;;;;2.17;1.25;;;;;;;26.23;35.69;100667.44;6201590;28;20562;-91
2022/09/02 14:45:31;;;;;;;1.63;1.23;;;;;;;26.26;36.06;100661.66;6202338;28;20049;-91
2022/09/02 14:48:37;;;;;;;1.80;1.35;;;;;;;26.29;36.28;100659.41;6203987;28;20061;-91